createdAt,value
2022-09-20T00:01:23.285Z,1.70
2022-09-20T00:03:54.965Z,1.88
2022-09-20T00:06:25.578Z,1.85
2022-09-20T00:11:24.036Z,1.80
2022-09-20T00:13:54.635Z,1.73
2022-09-20T00:16:25.142Z,1.90
2022-09-20T00:18:56.779Z,1.80
2022-09-20T00:21:27.068Z,1.65
2022-09-20T00:23:56.740Z,1.65
2022-09-20T00:26:25.187Z,1.90
2022-09-20T00:28:53.714Z,1.80
2022-09-20T00:31:22.291Z,1.90
2022-09-20T00:34:08.267Z,1.90
2022-09-20T00:36:38.076Z,1.50
2022-09-20T00:39:06.383Z,1.92
2022-09-20T00:41:34.739Z,1.92
2022-09-20T00:44:04.030Z,1.70
2022-09-20T00:46:37.217Z,2.00
2022-09-20T00:49:07.942Z,2.05
2022-09-20T00:51:39.242Z,2.00
2022-09-20T00:54:08.838Z,1.70
2022-09-20T00:56:39.123Z,1.80
2022-09-20T00:59:12.839Z,1.90
2022-09-20T01:01:41.529Z,1.80
2022-09-20T01:04:10.143Z,1.90
2022-09-20T01:06:40.069Z,2.20
2022-09-20T01:09:09.119Z,2.10
2022-09-20T01:11:38.339Z,1.85
2022-09-20T01:14:06.686Z,2.10
2022-09-20T01:16:35.604Z,2.30
2022-09-20T01:19:07.270Z,2.03
2022-09-20T01:21:35.864Z,1.80
2022-09-20T01:24:10.739Z,2.20
2022-09-20T01:26:56.578Z,1.83
2022-09-20T01:29:36.980Z,2.08
2022-09-20T01:32:09.634Z,1.90
2022-09-20T01:34:43.067Z,2.03
2022-09-20T01:37:17.637Z,2.00
2022-09-20T01:39:53.647Z,2.00
2022-09-20T01:42:26.625Z,2.00
2022-09-20T01:45:01.844Z,2.03
2022-09-20T01:47:34.728Z,2.00
2022-09-20T01:50:09.400Z,2.10
2022-09-20T01:53:16.031Z,2.15
2022-09-20T01:56:19.978Z,2.05
2022-09-20T01:59:24.702Z,2.13
2022-09-20T02:02:19.473Z,2.20
2022-09-20T02:05:20.486Z,2.20
2022-09-20T02:08:07.851Z,2.20
2022-09-20T02:10:43.026Z,2.00
2022-09-20T02:13:12.714Z,2.05
2022-09-20T02:16:07.588Z,1.83
2022-09-20T02:18:49.072Z,2.20
2022-09-20T02:21:22.981Z,2.00
2022-09-20T02:23:57.928Z,1.90
2022-09-20T02:26:34.964Z,2.28
2022-09-20T02:29:11.448Z,1.90
2022-09-20T02:32:02.013Z,2.25
2022-09-20T02:34:45.613Z,1.90
2022-09-20T02:37:31.556Z,2.03
2022-09-20T02:40:11.351Z,2.10
2022-09-20T02:42:45.131Z,2.00
2022-09-20T02:45:19.940Z,2.08
2022-09-20T02:47:48.819Z,2.17
2022-09-20T02:50:26.439Z,2.15
2022-09-20T02:53:05.829Z,2.20
2022-09-20T02:55:41.120Z,2.25
2022-09-20T02:58:22.404Z,2.20
2022-09-20T03:00:56.054Z,2.10
2022-09-20T03:03:33.153Z,2.30
2022-09-20T03:06:08.490Z,2.30
2022-09-20T03:08:40.858Z,2.40
2022-09-20T03:11:18.697Z,2.20
2022-09-20T03:14:04.298Z,2.20
2022-09-20T03:16:39.132Z,2.35
2022-09-20T03:19:16.730Z,2.30
2022-09-20T03:21:53.472Z,2.50
2022-09-20T03:24:30.395Z,2.40
2022-09-20T03:27:05.563Z,2.40
2022-09-20T03:29:43.751Z,2.60
2022-09-20T03:32:23.633Z,2.35
2022-09-20T03:34:59.190Z,2.60
2022-09-20T03:37:38.791Z,2.40
2022-09-20T03:40:49.142Z,2.50
2022-09-20T03:43:27.506Z,2.55
2022-09-20T03:46:07.525Z,2.55
2022-09-20T03:48:55.840Z,2.47
2022-09-20T03:51:33.824Z,2.55
2022-09-20T03:54:38.246Z,2.80
2022-09-20T03:57:39.074Z,2.60
2022-09-20T04:03:19.032Z,2.47
2022-09-20T04:05:55.164Z,2.75
2022-09-20T04:08:41.805Z,2.97
2022-09-20T04:11:16.817Z,2.47
2022-09-20T04:13:52.341Z,2.92
2022-09-20T04:16:27.787Z,2.83
2022-09-20T04:18:58.590Z,2.83
2022-09-20T04:21:30.556Z,2.35
2022-09-20T04:24:02.785Z,2.78
2022-09-20T04:26:33.047Z,3.00
2022-09-20T04:29:14.363Z,2.85
2022-09-20T04:31:48.862Z,2.85
2022-09-20T04:34:23.840Z,2.70
2022-09-20T04:36:57.653Z,2.88
2022-09-20T04:39:36.902Z,2.80
2022-09-20T04:42:56.119Z,2.90
2022-09-20T04:45:57.320Z,3.05
2022-09-20T04:48:57.031Z,2.53
2022-09-20T04:51:58.319Z,2.67
2022-09-20T04:54:52.700Z,2.92
2022-09-20T04:57:43.213Z,2.80
2022-09-20T05:00:15.009Z,2.80
2022-09-20T05:03:30.102Z,2.70
2022-09-20T05:06:45.059Z,3.00
2022-09-20T05:09:47.136Z,3.15
2022-09-20T05:12:37.259Z,2.70
2022-09-20T05:15:14.088Z,2.53
2022-09-20T05:17:59.645Z,2.63
2022-09-20T05:20:47.713Z,3.10
2022-09-20T05:23:29.071Z,2.97
2022-09-20T05:26:14.095Z,2.90
2022-09-20T05:28:51.743Z,3.03
2022-09-20T05:31:26.321Z,2.85
2022-09-20T05:33:58.381Z,2.80
2022-09-20T05:36:34.754Z,2.92
2022-09-20T05:39:13.306Z,3.00
2022-09-20T05:41:45.193Z,2.80
2022-09-20T05:44:28.542Z,2.92
2022-09-20T05:47:05.157Z,2.90
2022-09-20T05:49:42.701Z,2.88
2022-09-20T05:52:37.111Z,2.80
2022-09-20T05:55:29.937Z,3.20
2022-09-20T05:58:17.438Z,3.20
2022-09-20T06:00:49.692Z,2.80
2022-09-20T06:03:27.173Z,3.63
2022-09-20T06:06:02.503Z,3.53
2022-09-20T06:09:00.489Z,2.95
2022-09-20T06:11:54.983Z,3.17
2022-09-20T06:14:36.235Z,2.90
2022-09-20T06:17:11.995Z,2.85
2022-09-20T06:19:45.502Z,3.10
2022-09-20T06:22:17.729Z,3.20
2022-09-20T06:24:49.682Z,3.17
2022-09-20T06:27:22.210Z,3.50
2022-09-20T06:29:54.328Z,3.88
2022-09-20T06:32:23.303Z,3.25
2022-09-20T06:34:53.110Z,3.35
2022-09-20T06:37:54.885Z,3.95
2022-09-20T06:40:50.457Z,3.83
2022-09-20T06:43:20.458Z,3.80
2022-09-20T06:45:49.519Z,3.47
2022-09-20T06:48:22.191Z,3.60
2022-09-20T06:50:52.426Z,3.47
2022-09-20T06:53:27.913Z,3.22
2022-09-20T06:55:57.069Z,3.05
2022-09-20T06:58:26.853Z,3.40
2022-09-20T07:00:55.285Z,3.50
2022-09-20T07:03:23.750Z,3.80
2022-09-20T07:05:52.084Z,3.20
2022-09-20T07:08:20.434Z,3.58
2022-09-20T07:10:48.808Z,3.45
2022-09-20T07:13:19.211Z,3.58
2022-09-20T07:15:49.032Z,3.60
2022-09-20T07:18:17.544Z,3.30
2022-09-20T07:20:45.857Z,2.95
2022-09-20T07:23:15.816Z,3.30
2022-09-20T07:25:44.208Z,2.65
2022-09-20T07:28:12.586Z,2.45
2022-09-20T07:30:41.035Z,2.70
2022-09-20T07:33:12.077Z,2.60
2022-09-20T07:35:41.709Z,2.60
2022-09-20T07:38:10.381Z,2.27
2022-09-20T07:40:38.811Z,2.95
2022-09-20T07:43:07.790Z,2.75
2022-09-20T07:45:39.091Z,2.47
2022-09-20T07:48:09.610Z,2.67
2022-09-20T07:50:39.329Z,2.60
2022-09-20T07:53:07.652Z,2.70
2022-09-20T07:55:36.018Z,2.22
2022-09-20T07:58:04.362Z,3.05
2022-09-20T08:00:32.823Z,2.78
2022-09-20T08:03:01.425Z,2.88
2022-09-20T08:05:29.853Z,2.53
2022-09-20T08:08:01.080Z,2.72
2022-09-20T08:10:29.401Z,2.80
2022-09-20T08:15:46.198Z,2.60
2022-09-20T08:18:15.794Z,2.63
2022-09-20T08:20:44.154Z,2.53
2022-09-20T08:23:23.343Z,2.50
2022-09-20T08:25:52.506Z,3.00
2022-09-20T08:28:20.782Z,2.88
2022-09-20T08:30:49.098Z,2.28
2022-09-20T08:33:17.500Z,2.10
2022-09-20T08:35:49.662Z,2.00
2022-09-20T08:41:12.654Z,2.20
2022-09-20T08:43:45.563Z,1.98
2022-09-20T08:46:22.899Z,2.00
2022-09-20T08:48:52.212Z,1.95
2022-09-20T08:51:23.211Z,2.00
2022-09-20T08:53:54.622Z,1.88
2022-09-20T08:56:23.535Z,2.10
2022-09-20T08:58:53.383Z,2.63
2022-09-20T09:01:23.792Z,2.00
2022-09-20T09:03:52.697Z,1.75
2022-09-20T09:06:22.775Z,2.30
2022-09-20T09:08:53.688Z,2.50
2022-09-20T09:11:23.547Z,2.58
2022-09-20T09:13:55.150Z,2.70
2022-09-20T09:16:33.513Z,2.50
2022-09-20T09:19:33.330Z,2.20
2022-09-20T09:22:03.211Z,2.47
2022-09-20T09:24:32.969Z,2.40
2022-09-20T09:27:10.298Z,2.17
2022-09-20T09:29:50.556Z,2.20
2022-09-20T09:32:24.646Z,2.03
2022-09-20T09:34:52.903Z,2.00
2022-09-20T09:37:28.865Z,2.03
2022-09-20T09:40:12.859Z,2.33
2022-09-20T09:42:50.235Z,2.60
2022-09-20T09:45:31.523Z,2.28
2022-09-20T09:48:02.276Z,2.17
2022-09-20T09:50:32.079Z,2.78
2022-09-20T09:53:02.933Z,2.55
2022-09-20T09:55:43.457Z,2.63
2022-09-20T10:00:46.625Z,1.40
2022-09-20T10:03:24.168Z,1.95
2022-09-20T10:06:08.232Z,1.45
2022-09-20T10:08:45.843Z,1.60
2022-09-20T10:11:26.033Z,2.20
2022-09-20T10:14:05.539Z,1.70
2022-09-20T10:16:58.184Z,2.20
2022-09-20T10:19:39.164Z,2.05
2022-09-20T10:22:11.246Z,1.80
2022-09-20T10:24:51.393Z,1.70
2022-09-20T10:27:31.497Z,1.90
2022-09-20T10:30:06.327Z,1.77
2022-09-20T10:32:47.473Z,1.75
2022-09-20T10:35:24.192Z,1.52
2022-09-20T10:38:01.351Z,1.50
2022-09-20T10:40:48.227Z,1.45
2022-09-20T10:43:30.718Z,1.40
2022-09-20T10:46:31.426Z,1.08
2022-09-20T10:49:02.886Z,1.60
2022-09-20T10:51:41.659Z,1.30
2022-09-20T10:54:21.176Z,1.50
2022-09-20T10:56:52.873Z,1.67
2022-09-20T10:59:31.597Z,1.35
2022-09-20T11:02:18.660Z,0.90
2022-09-20T11:04:58.917Z,1.30
2022-09-20T11:07:36.950Z,1.25
2022-09-20T11:10:09.119Z,1.20
2022-09-20T11:12:39.626Z,1.25
2022-09-20T11:17:47.126Z,1.42
2022-09-20T11:20:20.830Z,1.30
2022-09-20T11:22:51.195Z,1.38
2022-09-20T11:25:27.328Z,1.40
2022-09-20T11:28:02.328Z,1.40
2022-09-20T11:30:34.712Z,1.30
2022-09-20T11:33:06.139Z,1.50
2022-09-20T11:35:36.190Z,1.15
2022-09-20T11:38:14.470Z,1.60
2022-09-20T11:40:47.429Z,1.80
2022-09-20T11:43:17.040Z,1.83
2022-09-20T11:45:49.585Z,1.75
2022-09-20T11:48:25.175Z,1.77
2022-09-20T11:51:18.172Z,1.77
2022-09-20T11:53:59.791Z,1.70
2022-09-20T11:56:30.996Z,1.30
2022-09-20T11:59:00.907Z,1.42
2022-09-20T12:01:32.607Z,1.63
2022-09-20T12:04:30.656Z,1.75
2022-09-20T12:07:02.452Z,1.40
2022-09-20T12:09:36.799Z,1.83
2022-09-20T12:12:20.580Z,1.60
2022-09-20T12:14:55.433Z,1.65
2022-09-20T12:18:09.757Z,1.55
2022-09-20T12:21:02.321Z,1.90
2022-09-20T12:24:01.863Z,2.20
2022-09-20T12:26:45.269Z,1.92
2022-09-20T12:29:53.316Z,1.80
2022-09-20T12:32:42.522Z,1.65
2022-09-20T12:35:25.525Z,1.60
2022-09-20T12:37:55.637Z,1.50
2022-09-20T12:40:26.083Z,1.67
2022-09-20T12:42:57.883Z,1.50
2022-09-20T12:45:26.323Z,1.50
2022-09-20T12:47:55.972Z,1.55
2022-09-20T12:50:42.050Z,1.87
2022-09-20T12:53:15.292Z,1.30
2022-09-20T12:55:55.116Z,1.50
2022-09-20T12:58:26.918Z,1.42
2022-09-20T13:01:29.531Z,1.30
2022-09-20T13:04:32.415Z,1.55
2022-09-20T13:07:43.994Z,1.40
2022-09-20T13:10:29.237Z,1.30
2022-09-20T13:13:03.498Z,1.20
2022-09-20T13:15:33.264Z,1.10
2022-09-20T13:18:03.293Z,1.30
2022-09-20T13:20:35.201Z,1.38
2022-09-20T13:23:05.436Z,1.27
2022-09-20T13:25:35.666Z,1.20
2022-09-20T13:28:09.790Z,1.65
2022-09-20T13:30:40.704Z,1.10
2022-09-20T13:33:23.499Z,1.35
2022-09-20T13:35:54.645Z,1.40
2022-09-20T13:38:30.140Z,1.25
2022-09-20T13:41:06.344Z,1.20
2022-09-20T13:43:38.239Z,1.17
2022-09-20T13:46:12.072Z,1.00
2022-09-20T13:48:41.139Z,1.00
2022-09-20T13:51:19.325Z,0.75
2022-09-20T13:53:48.502Z,0.80
2022-09-20T13:56:22.485Z,1.40
2022-09-20T13:58:51.485Z,0.98
2022-09-20T14:01:25.722Z,1.20
2022-09-20T14:03:54.586Z,1.05
2022-09-20T14:06:28.116Z,1.00
2022-09-20T14:08:57.744Z,1.00
2022-09-20T14:11:28.635Z,1.10
2022-09-20T14:13:58.299Z,1.20
2022-09-20T14:16:31.008Z,1.20
2022-09-20T14:19:00.235Z,1.40
2022-09-20T14:21:29.705Z,1.50
2022-09-20T14:24:02.245Z,1.63
2022-09-20T14:26:34.777Z,1.60
2022-09-20T14:29:30.641Z,1.38
2022-09-20T14:32:00.283Z,1.70
2022-09-20T14:34:28.830Z,1.50
2022-09-20T14:37:13.525Z,1.60
2022-09-20T14:39:48.856Z,1.75
2022-09-20T14:42:30.120Z,1.70
2022-09-20T14:44:58.635Z,1.60
2022-09-20T14:47:28.510Z,1.63
2022-09-20T14:49:58.094Z,1.63
2022-09-20T14:52:37.518Z,1.20
2022-09-20T14:55:19.260Z,1.55
2022-09-20T14:57:49.428Z,1.42
2022-09-20T15:00:20.653Z,1.42
2022-09-20T15:02:48.994Z,1.50
2022-09-20T15:05:20.638Z,2.05
2022-09-20T15:07:49.047Z,1.70
2022-09-20T15:10:17.570Z,1.52
2022-09-20T15:12:46.074Z,1.52
2022-09-20T15:15:17.476Z,1.52
2022-09-20T15:17:46.971Z,2.10
2022-09-20T15:20:23.226Z,1.88
2022-09-20T15:22:52.803Z,3.10
2022-09-20T15:25:22.735Z,3.10
2022-09-20T15:27:51.899Z,2.45
2022-09-20T15:30:22.395Z,1.55
2022-09-20T15:32:50.774Z,1.40
2022-09-20T15:35:19.488Z,1.58
2022-09-20T15:37:47.871Z,1.58
2022-09-20T15:40:16.631Z,1.65
2022-09-20T15:42:45.926Z,1.38
2022-09-20T15:45:14.854Z,1.23
2022-09-20T15:47:44.731Z,1.00
2022-09-20T15:50:13.068Z,1.60
2022-09-20T15:52:41.625Z,1.10
2022-09-20T15:55:12.019Z,1.02
2022-09-20T15:57:41.964Z,1.23
2022-09-20T16:00:11.146Z,1.00
2022-09-20T16:02:39.482Z,1.10
2022-09-20T16:05:10.995Z,1.08
2022-09-20T16:07:39.323Z,1.20
2022-09-20T16:10:08.900Z,1.27
2022-09-20T16:12:37.193Z,1.27
2022-09-20T16:15:06.251Z,1.20
2022-09-20T16:39:09.058Z,1.05
2022-09-20T16:41:39.151Z,1.10
2022-09-20T16:44:08.039Z,1.30
